createdAt,value
2017-03-23T00:01:01.820Z,0
2017-03-23T00:02:10.494Z,0
2017-03-23T00:03:19.461Z,0
2017-03-23T00:04:28.436Z,0
2017-03-23T00:05:37.403Z,0
2017-03-23T00:06:46.373Z,0
2017-03-23T00:07:55.033Z,0
2017-03-23T00:09:03.700Z,0
2017-03-23T00:10:12.970Z,0
2017-03-23T00:11:21.681Z,0
2017-03-23T00:12:30.342Z,0
2017-03-23T00:13:39.007Z,0
2017-03-23T00:14:47.973Z,0
2017-03-23T00:15:57.251Z,0
2017-03-23T00:17:05.929Z,0
2017-03-23T00:18:14.593Z,0
2017-03-23T00:19:23.262Z,0
2017-03-23T00:20:32.539Z,0
2017-03-23T00:21:41.210Z,0
2017-03-23T00:22:49.877Z,0
2017-03-23T00:23:58.548Z,0
2017-03-23T00:25:07.526Z,0
2017-03-23T00:26:16.201Z,0
2017-03-23T00:27:24.877Z,0
2017-03-23T00:28:33.555Z,0
2017-03-23T00:29:42.221Z,0
2017-03-23T00:30:50.889Z,0
2017-03-23T00:31:59.554Z,0
2017-03-23T00:33:08.220Z,0
2017-03-23T00:34:16.893Z,0
2017-03-23T00:35:25.552Z,0
2017-03-23T00:36:34.223Z,0
2017-03-23T00:37:42.892Z,0
2017-03-23T00:38:51.555Z,0
2017-03-23T00:40:00.217Z,0
2017-03-23T00:41:08.890Z,0
2017-03-23T00:42:17.865Z,0
2017-03-23T00:43:26.824Z,0
2017-03-23T00:44:35.501Z,0
2017-03-23T00:45:44.465Z,0
2017-03-23T00:46:53.139Z,0
2017-03-23T00:48:02.097Z,0
2017-03-23T00:49:11.065Z,0
2017-03-23T00:50:19.729Z,0
2017-03-23T00:51:28.394Z,0
2017-03-23T00:52:37.370Z,0
2017-03-23T00:53:46.340Z,0
2017-03-23T00:54:54.998Z,0
2017-03-23T00:56:04.298Z,0
2017-03-23T00:57:12.969Z,0
2017-03-23T00:58:22.250Z,0
2017-03-23T00:59:31.219Z,0
2017-03-23T01:00:39.895Z,0
2017-03-23T01:01:48.558Z,0
2017-03-23T01:02:57.521Z,0
2017-03-23T01:04:06.490Z,0
2017-03-23T01:05:15.167Z,0
2017-03-23T01:06:23.837Z,0
2017-03-23T01:07:32.506Z,0
2017-03-23T01:08:41.479Z,0
2017-03-23T01:09:50.154Z,0
2017-03-23T01:10:58.831Z,0
2017-03-23T01:12:07.503Z,0
2017-03-23T01:13:16.170Z,0
2017-03-23T01:14:25.163Z,0
2017-03-23T01:15:33.836Z,0
2017-03-23T01:16:42.496Z,0
2017-03-23T01:17:51.157Z,0
2017-03-23T01:18:59.861Z,0
2017-03-23T01:20:08.841Z,0
2017-03-23T01:21:17.508Z,0
2017-03-23T01:22:26.182Z,0
2017-03-23T01:23:35.158Z,0
2017-03-23T01:24:44.429Z,0
2017-03-23T01:25:53.105Z,0
2017-03-23T01:27:02.075Z,0
2017-03-23T01:28:10.781Z,0
2017-03-23T01:29:19.751Z,0
2017-03-23T01:30:28.425Z,0
2017-03-23T01:31:37.083Z,0
2017-03-23T01:32:46.068Z,0
2017-03-23T01:33:54.744Z,0
2017-03-23T01:35:03.712Z,0
2017-03-23T01:36:12.389Z,0
2017-03-23T01:37:21.354Z,0
2017-03-23T01:38:30.016Z,0
2017-03-23T01:39:38.685Z,0
2017-03-23T01:40:47.356Z,0
2017-03-23T01:41:56.026Z,0
2017-03-23T01:43:04.703Z,0
2017-03-23T01:44:13.365Z,0
2017-03-23T01:45:22.043Z,0
2017-03-23T01:46:30.711Z,0
2017-03-23T01:47:39.393Z,0
2017-03-23T01:48:48.062Z,0
2017-03-23T01:49:56.727Z,0
2017-03-23T01:51:05.700Z,0
2017-03-23T01:52:14.367Z,0
2017-03-23T01:53:23.036Z,0
2017-03-23T01:54:31.703Z,0
2017-03-23T01:55:40.663Z,0
2017-03-23T01:56:49.329Z,0
2017-03-23T01:57:57.996Z,0
2017-03-23T01:59:06.661Z,0
2017-03-23T02:00:15.328Z,0
2017-03-23T02:01:23.996Z,0
2017-03-23T02:02:32.961Z,0
2017-03-23T02:03:41.918Z,0
2017-03-23T02:04:50.591Z,0
2017-03-23T02:05:59.548Z,0
2017-03-23T02:07:08.515Z,0
2017-03-23T02:08:17.181Z,0
2017-03-23T02:09:25.853Z,0
2017-03-23T02:10:34.823Z,0
2017-03-23T02:11:43.779Z,0
2017-03-23T02:12:52.439Z,0
2017-03-23T02:14:01.107Z,0
2017-03-23T02:15:10.072Z,0
2017-03-23T02:16:18.738Z,0
2017-03-23T02:17:27.707Z,0
2017-03-23T02:18:36.370Z,0
2017-03-23T02:19:45.641Z,0
2017-03-23T02:20:54.308Z,0
2017-03-23T02:22:03.302Z,0
2017-03-23T02:23:11.974Z,0
2017-03-23T02:24:20.941Z,0
2017-03-23T02:25:29.917Z,0
2017-03-23T02:26:38.581Z,0
2017-03-23T02:27:47.255Z,0
2017-03-23T02:28:55.932Z,0
2017-03-23T02:30:04.903Z,0
2017-03-23T02:31:13.874Z,0
2017-03-23T02:32:22.580Z,0
2017-03-23T02:33:31.265Z,0
2017-03-23T02:34:40.248Z,0
2017-03-23T02:35:48.916Z,0
2017-03-23T02:36:57.885Z,0
2017-03-23T02:38:06.585Z,0
2017-03-23T02:39:15.259Z,0
2017-03-23T02:40:23.928Z,0
2017-03-23T02:41:32.595Z,0
2017-03-23T02:42:41.269Z,0
2017-03-23T02:43:49.934Z,0
2017-03-23T02:44:58.598Z,0
2017-03-23T02:46:07.258Z,0
2017-03-23T02:47:15.926Z,0
2017-03-23T02:48:24.596Z,0
2017-03-23T02:49:33.864Z,0
2017-03-23T02:50:42.839Z,0
2017-03-23T02:51:51.505Z,0
2017-03-23T02:53:00.175Z,0
2017-03-23T02:54:08.836Z,0
2017-03-23T02:55:17.501Z,0
2017-03-23T02:56:26.161Z,0
2017-03-23T02:57:34.836Z,0
2017-03-23T02:58:43.513Z,0
2017-03-23T02:59:52.191Z,0
2017-03-23T03:01:01.170Z,0
2017-03-23T03:02:10.138Z,0
2017-03-23T03:03:19.406Z,0
2017-03-23T03:04:28.071Z,0
2017-03-23T03:05:37.037Z,0
2017-03-23T03:06:46.001Z,0
2017-03-23T03:07:54.673Z,0
2017-03-23T03:09:03.339Z,0
2017-03-23T03:10:12.303Z,0
2017-03-23T03:11:20.962Z,0
2017-03-23T03:12:29.929Z,0
2017-03-23T03:13:38.592Z,0
2017-03-23T03:14:47.264Z,0
2017-03-23T03:15:55.933Z,0
2017-03-23T03:17:04.904Z,0
2017-03-23T03:18:13.567Z,0
2017-03-23T03:19:22.229Z,0
2017-03-23T03:20:30.905Z,0
2017-03-23T03:21:39.569Z,0
2017-03-23T03:22:48.233Z,0
2017-03-23T03:23:57.204Z,0
2017-03-23T03:25:05.870Z,0
2017-03-23T03:26:14.546Z,0
2017-03-23T03:27:23.216Z,0
2017-03-23T03:28:31.868Z,0
2017-03-23T03:29:40.826Z,0
2017-03-23T03:30:49.792Z,0
2017-03-23T03:31:58.761Z,0
2017-03-23T03:33:07.733Z,0
2017-03-23T03:34:16.702Z,0
2017-03-23T03:35:25.365Z,0
2017-03-23T03:36:34.330Z,0
2017-03-23T03:37:43.297Z,0
2017-03-23T03:38:51.969Z,0
2017-03-23T03:40:00.631Z,0
2017-03-23T03:41:09.311Z,0
2017-03-23T03:42:17.971Z,0
2017-03-23T03:43:26.630Z,0
2017-03-23T03:44:35.298Z,0
2017-03-23T03:45:44.262Z,0
2017-03-23T03:46:52.928Z,0
2017-03-23T03:48:01.587Z,0
2017-03-23T03:49:10.550Z,0
2017-03-23T03:50:19.216Z,0
2017-03-23T03:51:27.878Z,0
2017-03-23T03:52:36.849Z,0
2017-03-23T03:53:45.521Z,0
2017-03-23T03:54:54.191Z,0
2017-03-23T03:56:03.456Z,0
2017-03-23T03:57:12.424Z,0
2017-03-23T03:58:21.397Z,0
2017-03-23T03:59:30.673Z,0
2017-03-23T04:00:39.344Z,0
2017-03-23T04:01:48.015Z,0
2017-03-23T04:02:56.689Z,0
2017-03-23T04:04:05.349Z,0
2017-03-23T04:05:14.303Z,0
2017-03-23T04:06:23.276Z,0
2017-03-23T04:07:31.945Z,0
2017-03-23T04:08:40.619Z,0
2017-03-23T04:09:49.594Z,0
2017-03-23T04:10:58.261Z,0
2017-03-23T04:12:06.925Z,0
2017-03-23T04:13:15.900Z,0
2017-03-23T04:14:24.565Z,0
2017-03-23T04:15:33.230Z,0
2017-03-23T04:16:41.891Z,0
2017-03-23T04:17:50.553Z,0
2017-03-23T04:18:59.218Z,0
2017-03-23T04:20:07.886Z,0
2017-03-23T04:21:16.554Z,0
2017-03-23T04:22:25.217Z,0
2017-03-23T04:23:33.879Z,0
2017-03-23T04:24:42.539Z,0
2017-03-23T04:25:51.216Z,0
2017-03-23T04:26:59.885Z,0
2017-03-23T04:28:08.558Z,0
2017-03-23T04:29:17.225Z,0
2017-03-23T04:30:26.198Z,0
2017-03-23T04:31:35.168Z,0
2017-03-23T04:32:43.839Z,0
2017-03-23T04:33:52.798Z,0
2017-03-23T04:35:01.462Z,0
2017-03-23T04:36:10.129Z,0
2017-03-23T04:37:18.794Z,0
2017-03-23T04:38:27.460Z,0
2017-03-23T04:39:36.425Z,0
2017-03-23T04:40:45.390Z,0
2017-03-23T04:41:54.360Z,0
2017-03-23T04:43:03.331Z,0
2017-03-23T04:44:12.287Z,0
2017-03-23T04:45:20.953Z,0
2017-03-23T04:46:29.610Z,0
2017-03-23T04:47:38.279Z,0
2017-03-23T04:48:46.940Z,0
2017-03-23T04:49:55.613Z,0
2017-03-23T04:51:04.280Z,0
2017-03-23T04:52:12.938Z,0
2017-03-23T04:53:21.602Z,0
2017-03-23T04:54:30.970Z,0
2017-03-23T04:55:39.638Z,0
2017-03-23T04:56:48.303Z,0
2017-03-23T04:57:57.280Z,0
2017-03-23T04:59:06.853Z,0
2017-03-23T05:00:15.527Z,0
2017-03-23T05:01:24.195Z,0
2017-03-23T05:02:33.471Z,0
2017-03-23T05:03:42.147Z,0
2017-03-23T05:04:51.119Z,0
2017-03-23T05:05:59.782Z,0
2017-03-23T05:07:09.054Z,0
2017-03-23T05:08:17.720Z,0
2017-03-23T05:09:26.726Z,0
2017-03-23T05:10:35.407Z,0
2017-03-23T05:11:44.418Z,0
2017-03-23T05:12:53.391Z,0
2017-03-23T05:14:02.060Z,0
2017-03-23T05:15:10.732Z,0
2017-03-23T05:16:19.408Z,0
2017-03-23T05:17:28.076Z,0
2017-03-23T05:18:36.755Z,0
2017-03-23T05:19:45.426Z,0
2017-03-23T05:20:54.411Z,0
2017-03-23T05:22:03.114Z,0
2017-03-23T05:23:12.126Z,0
2017-03-23T05:24:21.087Z,0
2017-03-23T05:25:29.752Z,5
2017-03-23T05:26:38.424Z,5
2017-03-23T05:27:47.390Z,5
2017-03-23T05:28:56.061Z,5
2017-03-23T05:30:05.027Z,5
2017-03-23T05:31:13.694Z,10
2017-03-23T05:32:22.360Z,10
2017-03-23T05:33:31.014Z,10
2017-03-23T05:34:39.679Z,10
2017-03-23T05:35:48.649Z,15
2017-03-23T05:36:57.320Z,15
2017-03-23T05:38:06.290Z,15
2017-03-23T05:39:14.959Z,15
2017-03-23T05:40:23.927Z,20
2017-03-23T05:41:32.941Z,20
2017-03-23T05:42:41.911Z,20
2017-03-23T05:43:50.579Z,20
2017-03-23T05:44:59.556Z,25
2017-03-23T05:46:08.222Z,25
2017-03-23T05:47:17.196Z,25
2017-03-23T05:48:25.869Z,30
2017-03-23T05:49:34.536Z,35
2017-03-23T05:50:43.504Z,35
2017-03-23T05:51:52.182Z,40
2017-03-23T05:53:00.852Z,45
2017-03-23T05:54:09.517Z,45
2017-03-23T05:55:18.184Z,50
2017-03-23T05:56:27.152Z,50
2017-03-23T05:57:36.135Z,50
2017-03-23T05:58:45.099Z,50
2017-03-23T05:59:53.770Z,50
2017-03-23T06:01:02.443Z,45
2017-03-23T06:02:11.112Z,55
2017-03-23T06:03:19.781Z,60
2017-03-23T06:04:28.754Z,65
2017-03-23T06:05:37.424Z,65
2017-03-23T06:06:46.740Z,65
2017-03-23T06:07:55.706Z,70
2017-03-23T06:09:04.379Z,75
2017-03-23T06:10:13.042Z,80
2017-03-23T06:11:22.012Z,85
2017-03-23T06:12:30.677Z,90
2017-03-23T06:13:39.944Z,95
2017-03-23T06:14:48.611Z,100
2017-03-23T06:15:57.287Z,105
2017-03-23T06:17:05.972Z,110
2017-03-23T06:18:14.946Z,120
2017-03-23T06:19:23.625Z,120
2017-03-23T06:20:32.590Z,125
2017-03-23T06:21:41.557Z,130
2017-03-23T06:22:50.234Z,135
2017-03-23T06:23:58.900Z,145
2017-03-23T06:25:07.567Z,145
2017-03-23T06:26:16.233Z,145
2017-03-23T06:27:24.898Z,145
2017-03-23T06:28:34.174Z,145
2017-03-23T06:29:42.852Z,155
2017-03-23T06:30:51.824Z,160
2017-03-23T06:32:00.541Z,155
2017-03-23T06:33:09.210Z,160
2017-03-23T06:34:17.883Z,160
2017-03-23T06:35:26.843Z,165
2017-03-23T06:36:35.520Z,170
2017-03-23T06:37:44.512Z,170
2017-03-23T06:38:53.182Z,170
2017-03-23T06:40:02.157Z,180
2017-03-23T06:41:10.837Z,185
2017-03-23T06:42:19.497Z,195
2017-03-23T06:43:28.168Z,200
2017-03-23T06:44:36.843Z,200
2017-03-23T06:45:45.522Z,200
2017-03-23T06:46:54.191Z,200
2017-03-23T06:48:02.863Z,205
2017-03-23T06:49:11.534Z,210
2017-03-23T06:50:20.521Z,220
2017-03-23T06:51:29.485Z,230
2017-03-23T06:52:38.750Z,240
2017-03-23T06:53:47.721Z,245
2017-03-23T06:54:56.688Z,260
2017-03-23T06:56:05.667Z,265
2017-03-23T06:57:14.334Z,275
2017-03-23T06:58:23.017Z,270
2017-03-23T06:59:31.687Z,265
2017-03-23T07:00:40.658Z,265
2017-03-23T07:01:49.325Z,275
2017-03-23T07:02:58.891Z,295
2017-03-23T07:04:07.566Z,315
2017-03-23T07:05:16.276Z,325
2017-03-23T07:06:24.970Z,330
2017-03-23T07:07:33.938Z,330
2017-03-23T07:08:42.609Z,320
2017-03-23T07:09:51.266Z,305
2017-03-23T07:11:00.238Z,295
2017-03-23T07:12:09.223Z,315
2017-03-23T07:13:18.198Z,330
2017-03-23T07:14:26.874Z,350
2017-03-23T07:15:35.543Z,350
2017-03-23T07:16:44.214Z,340
2017-03-23T07:17:52.886Z,330
2017-03-23T07:19:01.855Z,340
2017-03-23T07:20:10.531Z,345
2017-03-23T07:21:19.506Z,345
2017-03-23T07:22:28.178Z,350
2017-03-23T07:23:36.841Z,345
2017-03-23T07:24:45.515Z,345
2017-03-23T07:25:54.487Z,350
2017-03-23T07:27:03.154Z,360
2017-03-23T07:28:11.819Z,360
2017-03-23T07:29:20.482Z,375
2017-03-23T07:30:29.454Z,395
2017-03-23T07:31:38.421Z,430
2017-03-23T07:32:47.398Z,455
2017-03-23T07:33:56.682Z,435
2017-03-23T07:35:05.964Z,420
2017-03-23T07:36:14.939Z,425
2017-03-23T07:37:23.616Z,450
2017-03-23T07:38:33.204Z,460
2017-03-23T07:39:41.877Z,450
2017-03-23T07:40:50.887Z,455
2017-03-23T07:41:59.556Z,470
2017-03-23T07:43:08.236Z,470
2017-03-23T07:44:16.910Z,470
2017-03-23T07:45:25.892Z,455
2017-03-23T07:46:34.871Z,445
2017-03-23T07:47:43.546Z,425
2017-03-23T07:48:52.520Z,405
2017-03-23T07:50:01.203Z,375
2017-03-23T07:51:10.216Z,385
2017-03-23T07:52:18.906Z,395
2017-03-23T07:53:27.883Z,430
2017-03-23T07:54:36.559Z,455
2017-03-23T07:55:45.536Z,460
2017-03-23T07:56:54.806Z,440
2017-03-23T07:58:03.481Z,420
2017-03-23T07:59:12.161Z,390
2017-03-23T08:00:21.143Z,380
2017-03-23T08:01:29.819Z,400
2017-03-23T08:02:38.496Z,435
2017-03-23T08:03:47.167Z,465
2017-03-23T08:04:55.843Z,470
2017-03-23T08:06:04.530Z,450
2017-03-23T08:07:13.198Z,440
2017-03-23T08:08:21.871Z,430
2017-03-23T08:09:30.546Z,350
2017-03-23T08:10:39.521Z,340
2017-03-23T08:11:48.195Z,435
2017-03-23T08:12:57.170Z,445
2017-03-23T08:14:06.142Z,410
2017-03-23T08:15:14.827Z,420
2017-03-23T08:16:23.500Z,390
2017-03-23T08:17:32.781Z,395
2017-03-23T08:18:41.457Z,390
2017-03-23T08:19:50.127Z,435
2017-03-23T08:20:58.799Z,440
2017-03-23T08:22:08.070Z,450
2017-03-23T08:23:16.734Z,450
2017-03-23T08:24:25.699Z,445
2017-03-23T08:25:34.370Z,440
2017-03-23T08:26:43.032Z,435
2017-03-23T08:27:52.003Z,470
2017-03-23T08:29:00.975Z,590
2017-03-23T08:30:09.950Z,935
2017-03-23T08:31:18.930Z,1180
2017-03-23T08:32:27.910Z,1210
2017-03-23T08:33:36.589Z,1210
2017-03-23T08:34:45.262Z,1220
2017-03-23T08:35:53.941Z,1140
2017-03-23T08:37:02.921Z,1205
2017-03-23T08:38:12.199Z,1210
2017-03-23T08:39:21.178Z,1230
2017-03-23T08:40:29.857Z,1210
2017-03-23T08:41:38.534Z,1245
2017-03-23T08:42:47.508Z,1275
2017-03-23T08:43:56.780Z,1280
2017-03-23T08:45:05.459Z,1295
2017-03-23T08:46:14.137Z,1295
2017-03-23T08:47:23.115Z,1290
2017-03-23T08:48:31.781Z,1265
2017-03-23T08:49:40.752Z,1315
2017-03-23T08:50:49.727Z,1370
2017-03-23T08:51:58.710Z,1330
2017-03-23T08:53:07.387Z,1370
2017-03-23T08:54:16.063Z,1355
2017-03-23T08:55:25.042Z,1325
2017-03-23T08:56:33.719Z,1410
2017-03-23T08:57:42.390Z,1380
2017-03-23T08:58:51.065Z,1325
2017-03-23T08:59:59.747Z,1365
2017-03-23T09:01:08.431Z,1380
2017-03-23T09:02:17.119Z,1360
2017-03-23T09:03:26.100Z,1380
2017-03-23T09:04:34.777Z,1430
2017-03-23T09:05:43.446Z,1515
2017-03-23T09:06:52.429Z,1480
2017-03-23T09:08:01.113Z,1450
2017-03-23T09:09:09.831Z,1385
2017-03-23T09:10:18.823Z,1390
2017-03-23T09:11:28.096Z,1445
2017-03-23T09:12:37.077Z,1420
2017-03-23T09:13:45.792Z,1440
2017-03-23T09:14:54.769Z,1515
2017-03-23T09:16:03.446Z,1445
2017-03-23T09:17:12.121Z,1440
2017-03-23T09:18:20.801Z,1405
2017-03-23T09:19:29.788Z,1505
2017-03-23T09:20:38.462Z,1525
2017-03-23T09:21:47.747Z,1475
2017-03-23T09:22:56.738Z,1545
2017-03-23T09:24:05.419Z,1510
2017-03-23T09:25:14.418Z,1495
2017-03-23T09:26:23.096Z,1500
2017-03-23T09:27:31.779Z,1525
2017-03-23T09:28:40.758Z,1495
2017-03-23T09:29:49.749Z,1595
2017-03-23T09:30:58.426Z,705
2017-03-23T09:32:07.109Z,1680
2017-03-23T09:33:15.797Z,1595
2017-03-23T09:34:24.487Z,1560
2017-03-23T09:35:33.470Z,1560
2017-03-23T09:36:42.153Z,550
2017-03-23T09:37:50.837Z,620
2017-03-23T09:38:59.512Z,570
2017-03-23T09:40:08.192Z,1440
2017-03-23T09:41:17.169Z,1130
2017-03-23T09:42:25.855Z,1700
2017-03-23T09:43:34.539Z,1885
2017-03-23T09:44:43.513Z,1675
2017-03-23T09:45:52.504Z,1930
2017-03-23T09:47:01.183Z,2090
2017-03-23T09:48:09.861Z,2030
2017-03-23T09:49:18.839Z,1885
2017-03-23T09:50:27.522Z,1800
2017-03-23T09:51:36.205Z,1770
2017-03-23T09:52:44.890Z,1730
2017-03-23T09:53:53.565Z,1040
2017-03-23T09:55:02.558Z,1220
2017-03-23T09:56:11.538Z,1600
2017-03-23T09:57:20.237Z,1620
2017-03-23T09:58:29.227Z,1590
2017-03-23T09:59:38.515Z,1350
2017-03-23T10:00:47.495Z,1775
2017-03-23T10:01:56.479Z,985
2017-03-23T10:03:05.465Z,1160
2017-03-23T10:04:14.152Z,1815
2017-03-23T10:05:23.150Z,745
2017-03-23T10:06:31.830Z,1770
2017-03-23T10:07:41.414Z,920
2017-03-23T10:08:50.397Z,2020
2017-03-23T10:09:59.075Z,730
2017-03-23T10:11:07.760Z,780
2017-03-23T10:12:16.735Z,1770
2017-03-23T10:13:25.717Z,1820
2017-03-23T10:14:34.393Z,1615
2017-03-23T10:15:43.675Z,1895
2017-03-23T10:16:52.698Z,1920
2017-03-23T10:18:01.379Z,1735
2017-03-23T10:19:10.358Z,725
2017-03-23T10:20:19.041Z,1830
2017-03-23T10:21:27.725Z,1935
2017-03-23T10:22:36.409Z,2025
2017-03-23T10:23:45.395Z,2065
2017-03-23T10:24:54.073Z,1905
2017-03-23T10:26:03.058Z,2090
2017-03-23T10:27:11.744Z,2170
2017-03-23T10:28:20.422Z,2095
2017-03-23T10:29:29.101Z,1975
2017-03-23T10:30:38.083Z,1930
2017-03-23T10:31:46.773Z,1970
2017-03-23T10:32:56.059Z,2100
2017-03-23T10:34:05.038Z,1955
2017-03-23T10:35:13.725Z,1795
2017-03-23T10:36:22.407Z,1700
2017-03-23T10:37:31.128Z,1875
2017-03-23T10:38:40.118Z,1710
2017-03-23T10:39:49.101Z,1575
2017-03-23T10:40:57.778Z,1470
2017-03-23T10:42:06.761Z,1510
2017-03-23T10:43:15.446Z,1360
2017-03-23T10:44:24.429Z,1365
2017-03-23T10:45:33.410Z,1445
2017-03-23T10:46:42.095Z,1380
2017-03-23T10:47:50.779Z,1450
2017-03-23T10:48:59.464Z,1510
2017-03-23T10:50:08.150Z,1570
2017-03-23T10:51:17.139Z,1645
2017-03-23T10:52:25.825Z,1695
2017-03-23T10:53:34.514Z,1820
2017-03-23T10:54:43.204Z,1980
2017-03-23T10:55:51.890Z,2035
2017-03-23T10:57:00.566Z,1920
2017-03-23T10:58:09.252Z,1985
2017-03-23T10:59:17.932Z,1925
2017-03-23T11:00:27.231Z,1690
2017-03-23T11:01:35.906Z,1680
2017-03-23T11:02:44.605Z,1755
2017-03-23T11:03:53.593Z,1760
2017-03-23T11:05:02.277Z,1870
2017-03-23T11:06:10.962Z,1875
2017-03-23T11:07:19.945Z,1760
2017-03-23T11:08:28.631Z,1065
2017-03-23T11:09:37.614Z,1510
2017-03-23T11:10:46.305Z,1375
2017-03-23T11:11:54.996Z,1330
2017-03-23T11:13:03.681Z,1220
2017-03-23T11:14:12.360Z,1290
2017-03-23T11:15:21.043Z,1490
2017-03-23T11:16:29.730Z,1360
2017-03-23T11:17:38.415Z,1180
2017-03-23T11:18:47.403Z,1050
2017-03-23T11:19:56.084Z,1175
2017-03-23T11:21:04.776Z,1435
2017-03-23T11:22:13.752Z,1615
2017-03-23T11:23:23.080Z,1930
2017-03-23T11:24:31.759Z,1825
2017-03-23T11:25:40.432Z,1845
2017-03-23T11:26:49.113Z,1770
2017-03-23T11:27:57.792Z,1965
2017-03-23T11:29:06.478Z,1775
2017-03-23T11:30:15.160Z,1710
2017-03-23T11:31:23.840Z,1590
2017-03-23T11:32:32.528Z,1690
2017-03-23T11:33:41.210Z,1795
2017-03-23T11:34:50.222Z,1975
2017-03-23T11:35:58.895Z,2005
2017-03-23T11:37:07.877Z,1940
2017-03-23T11:38:16.546Z,2035
2017-03-23T11:39:25.232Z,2170
2017-03-23T11:40:33.907Z,2130
2017-03-23T11:41:42.604Z,2065
2017-03-23T11:42:51.593Z,2065
2017-03-23T11:44:00.564Z,2105
2017-03-23T11:45:09.258Z,2130
2017-03-23T11:46:17.974Z,2125
2017-03-23T11:47:26.966Z,2170
2017-03-23T11:48:35.948Z,2180
2017-03-23T11:49:44.627Z,2095
2017-03-23T11:50:53.310Z,2140
2017-03-23T11:52:01.997Z,2110
2017-03-23T11:53:10.989Z,2010
2017-03-23T11:54:19.681Z,2015
2017-03-23T11:55:28.669Z,2110
2017-03-23T11:56:37.656Z,2065
2017-03-23T11:57:46.336Z,2115
2017-03-23T11:58:55.015Z,2145
2017-03-23T12:00:03.691Z,2085
2017-03-23T12:01:12.667Z,2015
2017-03-23T12:02:21.349Z,2085
2017-03-23T12:03:30.332Z,2060
2017-03-23T12:04:39.019Z,2020
2017-03-23T12:05:47.730Z,2075
2017-03-23T12:06:56.717Z,1980
2017-03-23T12:08:05.701Z,1925
2017-03-23T12:09:14.388Z,1960
2017-03-23T12:10:23.373Z,2035
2017-03-23T12:11:32.053Z,2015
2017-03-23T12:12:41.639Z,1930
2017-03-23T12:13:50.622Z,2025
2017-03-23T12:14:59.304Z,1995
2017-03-23T12:16:07.988Z,1975
2017-03-23T12:17:16.676Z,1905
2017-03-23T12:18:25.347Z,2005
2017-03-23T12:19:34.035Z,2105
2017-03-23T12:20:43.014Z,1965
2017-03-23T12:21:52.008Z,1920
2017-03-23T12:23:00.699Z,2010
2017-03-23T12:24:09.379Z,1975
2017-03-23T12:25:18.364Z,2010
2017-03-23T12:26:27.344Z,1950
2017-03-23T12:27:36.036Z,1925
2017-03-23T12:28:44.732Z,1960
2017-03-23T12:29:53.714Z,1875
2017-03-23T12:31:02.701Z,1885
2017-03-23T12:32:11.690Z,1910
2017-03-23T12:33:20.676Z,1895
2017-03-23T12:34:29.352Z,2010
2017-03-23T12:35:38.027Z,1905
2017-03-23T12:36:46.716Z,1920
2017-03-23T12:37:55.398Z,1805
2017-03-23T12:39:04.385Z,1710
2017-03-23T12:40:13.373Z,1755
2017-03-23T12:41:22.048Z,1590
2017-03-23T12:42:30.734Z,1280
2017-03-23T12:43:39.714Z,1050
2017-03-23T12:44:48.396Z,820
2017-03-23T12:45:57.086Z,625
2017-03-23T12:47:05.764Z,525
2017-03-23T12:48:14.441Z,500
2017-03-23T12:49:23.126Z,495
2017-03-23T12:50:31.810Z,495
2017-03-23T12:51:40.522Z,490
2017-03-23T12:52:49.202Z,495
2017-03-23T12:53:57.883Z,500
2017-03-23T12:55:06.896Z,510
2017-03-23T12:56:15.573Z,525
2017-03-23T12:57:24.260Z,520
2017-03-23T12:58:32.932Z,520
2017-03-23T12:59:41.614Z,515
2017-03-23T13:00:50.941Z,510
2017-03-23T13:01:59.922Z,505
2017-03-23T13:03:08.604Z,500
2017-03-23T13:04:17.286Z,500
2017-03-23T13:05:25.969Z,490
2017-03-23T13:06:34.647Z,485
2017-03-23T13:07:43.928Z,475
2017-03-23T13:08:52.607Z,465
2017-03-23T13:10:01.290Z,455
2017-03-23T13:11:09.962Z,450
2017-03-23T13:12:19.580Z,450
2017-03-23T13:13:28.592Z,450
2017-03-23T13:14:37.578Z,450
2017-03-23T13:15:46.253Z,460
2017-03-23T13:16:55.237Z,465
2017-03-23T13:18:04.216Z,465
2017-03-23T13:19:12.894Z,475
2017-03-23T13:20:21.874Z,475
2017-03-23T13:21:30.557Z,480
2017-03-23T13:22:39.533Z,480
2017-03-23T13:23:48.206Z,475
2017-03-23T13:24:57.479Z,470
2017-03-23T13:26:06.468Z,470
2017-03-23T13:27:15.152Z,470
2017-03-23T13:28:23.829Z,470
2017-03-23T13:29:32.813Z,470
2017-03-23T13:30:41.800Z,470
2017-03-23T13:31:50.480Z,480
2017-03-23T13:32:59.166Z,475
2017-03-23T13:34:07.845Z,480
2017-03-23T13:35:16.532Z,480
2017-03-23T13:36:25.508Z,480
2017-03-23T13:37:34.484Z,490
2017-03-23T13:38:43.152Z,485
2017-03-23T13:39:51.868Z,490
2017-03-23T13:41:00.550Z,495
2017-03-23T13:42:09.528Z,510
2017-03-23T13:43:18.215Z,510
2017-03-23T13:44:27.190Z,515
2017-03-23T13:45:35.880Z,525
2017-03-23T13:46:44.561Z,530
2017-03-23T13:47:53.844Z,535
2017-03-23T13:49:02.824Z,530
2017-03-23T13:50:11.831Z,530
2017-03-23T13:51:20.517Z,525
2017-03-23T13:52:29.195Z,520
2017-03-23T13:53:37.885Z,510
2017-03-23T13:54:46.570Z,500
2017-03-23T13:55:55.251Z,495
2017-03-23T13:57:04.231Z,490
2017-03-23T13:58:12.915Z,490
2017-03-23T13:59:21.596Z,475
2017-03-23T14:00:30.571Z,470
2017-03-23T14:01:39.262Z,475
2017-03-23T14:02:48.241Z,475
2017-03-23T14:03:57.214Z,475
2017-03-23T14:05:05.892Z,485
2017-03-23T14:06:14.583Z,500
2017-03-23T14:07:23.557Z,510
2017-03-23T14:08:32.236Z,515
2017-03-23T14:09:41.219Z,525
2017-03-23T14:10:49.907Z,525
2017-03-23T14:11:58.629Z,525
2017-03-23T14:13:07.614Z,515
2017-03-23T14:14:16.598Z,480
2017-03-23T14:15:25.578Z,475
2017-03-23T14:16:34.253Z,450
2017-03-23T14:17:42.925Z,435
2017-03-23T14:18:51.610Z,445
2017-03-23T14:20:00.288Z,455
2017-03-23T14:21:09.262Z,470
2017-03-23T14:22:17.937Z,485
2017-03-23T14:23:26.615Z,495
2017-03-23T14:24:35.285Z,500
2017-03-23T14:25:43.965Z,515
2017-03-23T14:26:52.939Z,515
2017-03-23T14:28:01.921Z,535
2017-03-23T14:29:10.605Z,550
2017-03-23T14:30:19.287Z,585
2017-03-23T14:31:28.268Z,605
2017-03-23T14:32:37.262Z,635
2017-03-23T14:33:46.243Z,645
2017-03-23T14:34:54.916Z,670
2017-03-23T14:36:03.893Z,670
2017-03-23T14:37:12.580Z,705
2017-03-23T14:38:21.253Z,965
2017-03-23T14:39:29.925Z,1290
2017-03-23T14:40:38.606Z,1310
2017-03-23T14:41:47.331Z,1375
2017-03-23T14:42:56.019Z,1415
2017-03-23T14:44:04.699Z,1455
2017-03-23T14:45:13.977Z,1295
2017-03-23T14:46:22.658Z,1195
2017-03-23T14:47:31.641Z,1000
2017-03-23T14:48:40.621Z,950
2017-03-23T14:49:49.900Z,1135
2017-03-23T14:50:58.579Z,1055
2017-03-23T14:52:07.269Z,1175
2017-03-23T14:53:16.246Z,1230
2017-03-23T14:54:25.217Z,1300
2017-03-23T14:55:33.906Z,1245
2017-03-23T14:56:42.896Z,1370
2017-03-23T14:57:51.881Z,1205
2017-03-23T14:59:00.869Z,1370
2017-03-23T15:00:09.861Z,1425
2017-03-23T15:01:18.543Z,1450
2017-03-23T15:02:27.223Z,1420
2017-03-23T15:03:36.203Z,1360
2017-03-23T15:04:45.184Z,1335
2017-03-23T15:05:54.171Z,1365
2017-03-23T15:07:02.851Z,1435
2017-03-23T15:08:11.538Z,1375
2017-03-23T15:09:20.217Z,1275
2017-03-23T15:10:28.900Z,1050
2017-03-23T15:11:37.910Z,830
2017-03-23T15:12:46.603Z,560
2017-03-23T15:13:55.592Z,645
2017-03-23T15:15:04.280Z,625
2017-03-23T15:16:12.969Z,505
2017-03-23T15:17:21.956Z,355
2017-03-23T15:18:30.642Z,445
2017-03-23T15:19:39.621Z,535
2017-03-23T15:20:48.935Z,715
2017-03-23T15:21:57.916Z,705
2017-03-23T15:23:06.598Z,690
2017-03-23T15:24:15.275Z,710
2017-03-23T15:25:23.951Z,685
2017-03-23T15:26:33.235Z,1025
2017-03-23T15:27:41.907Z,1165
2017-03-23T15:28:50.591Z,1145
2017-03-23T15:29:59.274Z,1080
2017-03-23T15:31:08.271Z,960
2017-03-23T15:32:17.852Z,905
2017-03-23T15:33:27.138Z,885
2017-03-23T15:34:36.111Z,865
2017-03-23T15:35:44.793Z,875
2017-03-23T15:36:53.788Z,890
2017-03-23T15:38:02.474Z,910
2017-03-23T15:39:11.202Z,955
2017-03-23T15:40:20.181Z,1000
2017-03-23T15:41:28.865Z,1025
2017-03-23T15:42:37.851Z,985
2017-03-23T15:43:46.540Z,960
2017-03-23T15:44:55.525Z,975
2017-03-23T15:46:04.206Z,980
2017-03-23T15:47:12.881Z,1050
2017-03-23T15:48:21.568Z,965
2017-03-23T15:49:30.249Z,965
2017-03-23T15:50:38.940Z,840
2017-03-23T15:51:47.633Z,705
2017-03-23T15:52:56.321Z,605
2017-03-23T15:54:05.005Z,530
2017-03-23T15:55:13.691Z,495
2017-03-23T15:56:22.378Z,470
2017-03-23T15:57:31.066Z,455
2017-03-23T15:58:39.791Z,430
2017-03-23T15:59:48.480Z,425
2017-03-23T16:00:57.764Z,415
2017-03-23T16:02:06.745Z,405